Time;durP1;ratioP1;P1;durP2;ratioP2;P2;SDS_P1;SDS_P2;PMS_P1;PMS_P2;Temp;Humidity;BMP_temperature;BMP_pressure;BME280_temperature;BME280_humidity;BME280_pressure;Samples;Min_cycle;Max_cycle;Signal;HPM_P1;HPM_P2
2022/04/07 00:00:27;;;;;;;24.10;8.77;;;;;;;;;;5089378;28;20169;-62
2022/04/07 00:02:53;;;;;;;20.90;8.00;;;;;;;;;;5089926;28;20130;-63
2022/04/07 00:05:19;;;;;;;21.70;7.85;;;;;;;;;;5087763;28;20044;-65
2022/04/07 00:07:48;;;;;;;20.17;7.82;;;;;;;;;;5090923;28;20119;-62
2022/04/07 00:10:14;;;;;;;18.38;7.10;;;;;;;;;;5089681;28;20052;-62
2022/04/07 00:12:42;;;;;;;18.05;6.97;;;;;;;;;;5089443;28;20158;-63
2022/04/07 00:15:09;;;;;;;19.23;6.78;;;;;;;;;;5089089;28;20044;-61
2022/04/07 00:17:36;;;;;;;20.67;7.10;;;;;;;;;;5087558;28;20123;-63
2022/04/07 00:20:03;;;;;;;18.05;6.28;;;;;;;;;;5109269;28;20046;-63
2022/04/07 00:22:29;;;;;;;18.17;5.90;;;;;;;;;;5109257;28;20048;-63
2022/04/07 00:24:55;;;;;;;13.27;5.15;;;;;;;;;;5107852;28;20107;-62
2022/04/07 00:27:21;;;;;;;17.35;5.22;;;;;;;;;;5109612;28;20115;-65
2022/04/07 00:29:47;;;;;;;19.48;5.30;;;;;;;;;;5094040;28;20039;-63
2022/04/07 00:32:13;;;;;;;20.63;5.13;;;;;;;;;;5089299;28;20495;-63
2022/04/07 00:34:43;;;;;;;16.60;5.15;;;;;;;;;;5088628;28;20044;-61
2022/04/07 00:37:09;;;;;;;15.63;4.05;;;;;;;;;;5088705;28;20087;-62
2022/04/07 00:39:35;;;;;;;19.88;4.75;;;;;;;;;;5089914;28;20060;-64
2022/04/07 00:42:01;;;;;;;13.13;3.92;;;;;;;;;;5089171;28;20095;-64
2022/04/07 00:44:28;;;;;;;19.30;4.55;;;;;;;;;;5087250;28;20143;-64
2022/04/07 00:46:54;;;;;;;18.63;3.92;;;;;;;;;;5089797;28;20048;-65
2022/04/07 00:49:20;;;;;;;16.50;4.28;;;;;;;;;;5088915;28;20044;-60
2022/04/07 00:51:49;;;;;;;17.50;4.22;;;;;;;;;;5088187;28;20196;-64
2022/04/07 00:54:16;;;;;;;16.27;4.07;;;;;;;;;;5088707;28;20066;-63
2022/04/07 00:56:42;;;;;;;17.92;4.43;;;;;;;;;;5098604;28;20044;-67
2022/04/07 00:59:08;;;;;;;21.90;4.70;;;;;;;;;;5109345;28;20055;-64
2022/04/07 01:01:35;;;;;;;22.08;4.90;;;;;;;;;;5108764;28;20104;-63
2022/04/07 01:04:01;;;;;;;21.83;5.60;;;;;;;;;;5108725;28;20048;-63
2022/04/07 01:06:27;;;;;;;23.77;5.40;;;;;;;;;;5106202;28;20120;-64
2022/04/07 01:08:54;;;;;;;19.58;4.97;;;;;;;;;;5109260;28;20436;-62
2022/04/07 01:11:21;;;;;;;19.55;5.63;;;;;;;;;;5107350;28;20477;-64
2022/04/07 01:13:49;;;;;;;26.73;5.50;;;;;;;;;;5106973;28;20051;-64
2022/04/07 01:16:16;;;;;;;22.42;4.60;;;;;;;;;;5109373;28;20092;-63
2022/04/07 01:18:42;;;;;;;20.25;4.60;;;;;;;;;;5107097;28;20047;-63
2022/04/07 01:21:10;;;;;;;21.77;5.80;;;;;;;;;;5109114;28;20394;-64
2022/04/07 01:23:38;;;;;;;22.27;5.03;;;;;;;;;;5108993;28;20104;-66
2022/04/07 01:26:05;;;;;;;24.38;5.00;;;;;;;;;;5109807;28;20100;-63
2022/04/07 01:28:31;;;;;;;23.42;5.03;;;;;;;;;;5109561;28;20127;-63
2022/04/07 01:30:57;;;;;;;;;;;;;;;;;;5113689;27;20093;-62
2022/04/07 01:33:23;;;;;;;20.85;5.80;;;;;;;;;;5113190;28;19962;-63
2022/04/07 01:35:50;;;;;;;18.42;5.50;;;;;;;;;;5112752;28;20059;-62
2022/04/07 01:38:16;;;;;;;26.30;5.75;;;;;;;;;;5111430;28;20044;-61
2022/04/07 01:40:43;;;;;;;19.58;5.35;;;;;;;;;;5112339;28;20048;-60
2022/04/07 01:43:10;;;;;;;20.45;5.03;;;;;;;;;;5113237;28;20348;-61
2022/04/07 01:45:36;;;;;;;20.05;5.45;;;;;;;;;;5110454;28;20086;-61
2022/04/07 01:48:03;;;;;;;24.05;5.80;;;;;;;;;;5113038;28;20039;-61
2022/04/07 01:50:29;;;;;;;29.15;7.10;;;;;;;;;;5112669;28;20059;-60
2022/04/07 01:52:55;;;;;;;;;;;;;;;;;;5112750;28;20066;-63
2022/04/07 01:55:22;;;;;;;25.35;7.28;;;;;;;;;;5112841;28;19920;-61
2022/04/07 01:57:48;;;;;;;27.38;7.75;;;;;;;;;;5092386;28;20484;-61
2022/04/07 02:00:14;;;;;;;25.23;7.60;;;;;;;;;;5092184;28;20052;-62
2022/04/07 02:02:40;;;;;;;28.98;7.82;;;;;;;;;;5091391;28;20139;-63
2022/04/07 02:05:11;;;;;;;31.75;8.30;;;;;;;;;;5092032;28;20499;-62
2022/04/07 02:07:38;;;;;;;24.75;7.55;;;;;;;;;;5105466;28;20047;-61
2022/04/07 02:10:04;;;;;;;19.55;6.10;;;;;;;;;;5111568;27;20489;-61
2022/04/07 02:12:31;;;;;;;33.78;8.30;;;;;;;;;;5112500;28;20066;-61
2022/04/07 02:14:57;;;;;;;;;;;;;;;;;;5112521;27;20133;-61
2022/04/07 02:17:23;;;;;;;30.60;7.80;;;;;;;;;;5085426;28;20337;-61
2022/04/07 02:19:50;;;;;;;28.83;7.80;;;;;;;;;;5089802;28;20101;-63
2022/04/07 02:22:19;;;;;;;27.08;7.35;;;;;;;;;;5092309;28;20144;-61
2022/04/07 02:24:45;;;;;;;25.23;7.05;;;;;;;;;;5091302;28;20083;-64
2022/04/07 02:27:12;;;;;;;32.85;6.95;;;;;;;;;;5095270;28;20213;-62
2022/04/07 02:29:38;;;;;;;31.02;7.65;;;;;;;;;;5111717;28;20047;-62
2022/04/07 02:32:05;;;;;;;28.85;6.85;;;;;;;;;;5110641;28;20184;-62
2022/04/07 02:34:31;;;;;;;27.90;7.15;;;;;;;;;;5110779;28;20541;-62
2022/04/07 02:36:57;;;;;;;27.50;6.55;;;;;;;;;;5111362;28;20048;-62
2022/04/07 02:39:23;;;;;;;28.35;5.93;;;;;;;;;;5093043;28;20132;-62
2022/04/07 02:41:49;;;;;;;;;;;;;;;;;;5091596;28;20116;-61
2022/04/07 02:44:18;;;;;;;27.92;5.85;;;;;;;;;;5091326;28;19931;-64
2022/04/07 02:46:44;;;;;;;33.58;6.78;;;;;;;;;;5092244;28;20519;-64
2022/04/07 02:49:11;;;;;;;29.92;7.15;;;;;;;;;;5089758;28;20461;-63
2022/04/07 02:51:38;;;;;;;26.15;6.80;;;;;;;;;;5091469;28;20063;-63
2022/04/07 02:54:04;;;;;;;38.20;7.05;;;;;;;;;;5124342;27;20132;-63
2022/04/07 02:56:30;;;;;;;33.13;6.40;;;;;;;;;;5091238;28;20047;-63
2022/04/07 02:58:57;;;;;;;30.27;6.97;;;;;;;;;;5090750;28;20074;-61
2022/04/07 03:01:23;;;;;;;;;;;;;;;;;;5090214;28;20126;-65
2022/04/07 03:03:52;;;;;;;27.25;7.30;;;;;;;;;;5089271;28;19974;-63
2022/04/07 03:06:18;;;;;;;25.90;7.28;;;;;;;;;;5092218;28;20127;-60
2022/04/07 03:08:47;;;;;;;29.95;6.85;;;;;;;;;;5090753;28;20391;-62
2022/04/07 03:11:13;;;;;;;28.13;8.18;;;;;;;;;;5091282;28;20052;-63
2022/04/07 03:13:40;;;;;;;28.42;8.43;;;;;;;;;;5091054;28;20081;-63
2022/04/07 03:16:06;;;;;;;22.50;7.70;;;;;;;;;;5090936;28;20052;-60
2022/04/07 03:18:33;;;;;;;25.27;7.97;;;;;;;;;;5092229;28;20398;-64
2022/04/07 03:20:59;;;;;;;26.90;8.27;;;;;;;;;;5089049;28;20048;-63
2022/04/07 03:23:25;;;;;;;24.30;8.27;;;;;;;;;;5090711;28;20200;-64
2022/04/07 03:25:53;;;;;;;30.35;8.57;;;;;;;;;;5088580;28;20063;-62
2022/04/07 03:28:19;;;;;;;29.15;8.27;;;;;;;;;;5091463;28;20052;-63
2022/04/07 03:30:45;;;;;;;24.30;7.30;;;;;;;;;;5090229;28;20399;-60
2022/04/07 03:33:11;;;;;;;28.63;7.90;;;;;;;;;;5090274;28;20040;-62
2022/04/07 03:35:38;;;;;;;26.90;8.43;;;;;;;;;;5088940;28;20084;-62
2022/04/07 03:38:09;;;;;;;25.10;7.50;;;;;;;;;;5089731;28;20472;-61
2022/04/07 03:40:35;;;;;;;30.00;8.07;;;;;;;;;;5090570;28;20060;-62
2022/04/07 03:43:01;;;;;;;27.02;6.88;;;;;;;;;;5088371;28;20086;-60
2022/04/07 03:45:27;;;;;;;;;;;;;;;;;;5091019;28;20113;-64
2022/04/07 03:47:53;;;;;;;24.17;6.93;;;;;;;;;;5088225;28;20282;-63
2022/04/07 03:50:19;;;;;;;22.65;6.25;;;;;;;;;;5088977;28;20117;-63
2022/04/07 03:52:45;;;;;;;27.83;6.10;;;;;;;;;;5090113;28;20063;-64
2022/04/07 03:55:11;;;;;;;28.15;7.00;;;;;;;;;;5088671;28;20039;-62
2022/04/07 03:57:38;;;;;;;31.92;6.55;;;;;;;;;;5091240;28;20044;-61
2022/04/07 04:00:04;;;;;;;24.42;7.05;;;;;;;;;;5089889;28;20048;-62
2022/04/07 04:02:31;;;;;;;31.40;6.30;;;;;;;;;;5088477;28;20145;-62
2022/04/07 04:04:57;;;;;;;30.95;7.28;;;;;;;;;;5089497;28;20102;-62
2022/04/07 04:07:23;;;;;;;30.73;6.22;;;;;;;;;;5091110;28;20044;-62
2022/04/07 04:09:49;;;;;;;27.77;6.22;;;;;;;;;;5089542;28;20048;-62
2022/04/07 04:12:15;;;;;;;27.23;6.68;;;;;;;;;;5090061;28;20209;-63
2022/04/07 04:14:41;;;;;;;27.10;6.45;;;;;;;;;;5089954;28;20128;-63
2022/04/07 04:17:07;;;;;;;28.40;6.47;;;;;;;;;;5072066;28;20097;-62
2022/04/07 04:19:33;;;;;;;24.48;6.53;;;;;;;;;;5090043;28;20120;-61
2022/04/07 04:22:00;;;;;;;31.10;6.65;;;;;;;;;;5087678;28;20044;-62
2022/04/07 04:24:26;;;;;;;36.83;7.53;;;;;;;;;;5089583;28;20087;-63
2022/04/07 04:26:52;;;;;;;34.53;7.10;;;;;;;;;;5089302;28;20043;-62
2022/04/07 04:29:19;;;;;;;30.85;6.72;;;;;;;;;;5094867;28;20055;-62
2022/04/07 04:31:45;;;;;;;35.03;7.40;;;;;;;;;;5108377;28;20234;-65
2022/04/07 04:34:11;;;;;;;38.67;7.55;;;;;;;;;;5109488;28;20123;-63
2022/04/07 04:36:38;;;;;;;36.78;7.10;;;;;;;;;;5107796;28;20473;-64
2022/04/07 04:39:04;;;;;;;33.42;7.47;;;;;;;;;;5108548;28;20130;-62
2022/04/07 04:41:31;;;;;;;32.33;6.57;;;;;;;;;;5109343;28;20048;-60
2022/04/07 04:44:00;;;;;;;;;;;;;;;;;;5107943;28;20089;-66
2022/04/07 04:46:26;;;;;;;31.40;7.63;;;;;;;;;;5107443;28;19992;-61
2022/04/07 04:48:52;;;;;;;33.28;7.00;;;;;;;;;;5108067;28;20055;-62
2022/04/07 04:51:18;;;;;;;32.90;7.30;;;;;;;;;;5109086;28;20059;-62
2022/04/07 04:53:44;;;;;;;32.55;6.88;;;;;;;;;;5109147;28;20043;-62
2022/04/07 04:56:10;;;;;;;38.17;7.97;;;;;;;;;;5108798;28;20263;-64
2022/04/07 04:58:37;;;;;;;26.77;6.90;;;;;;;;;;5107553;28;20044;-65
2022/04/07 05:01:03;;;;;;;38.38;7.50;;;;;;;;;;5108436;28;20127;-62
2022/04/07 05:03:29;;;;;;;35.05;7.38;;;;;;;;;;5109355;28;20066;-62
2022/04/07 05:05:58;;;;;;;43.35;8.93;;;;;;;;;;5108495;28;20039;-62
2022/04/07 05:08:24;;;;;;;35.08;7.82;;;;;;;;;;5107032;28;20082;-65
2022/04/07 05:10:50;;;;;;;40.22;8.40;;;;;;;;;;5108439;28;20048;-62
2022/04/07 05:13:16;;;;;;;33.22;7.50;;;;;;;;;;5108193;28;20147;-61
2022/04/07 05:15:43;;;;;;;33.90;8.32;;;;;;;;;;5107862;28;20111;-62
2022/04/07 05:18:10;;;;;;;34.80;7.90;;;;;;;;;;5103225;28;20395;-62
2022/04/07 05:20:37;;;;;;;33.30;7.63;;;;;;;;;;5087670;28;20052;-62
2022/04/07 05:23:03;;;;;;;18.30;5.30;;;;;;;;;;5088342;28;20122;-61
2022/04/07 05:25:29;;;;;;;18.92;4.28;;;;;;;;;;5087441;28;20399;-61
2022/04/07 05:27:55;;;;;;;11.85;3.20;;;;;;;;;;5088516;28;20143;-62
2022/04/07 05:30:22;;;;;;;18.23;3.25;;;;;;;;;;5109075;28;20039;-63
2022/04/07 05:32:51;;;;;;;18.55;3.63;;;;;;;;;;5109472;28;20061;-61
2022/04/07 05:35:17;;;;;;;11.55;3.13;;;;;;;;;;5108786;28;20044;-64
2022/04/07 05:37:43;;;;;;;12.63;2.90;;;;;;;;;;5109164;28;20398;-62
2022/04/07 05:40:10;;;;;;;15.00;3.40;;;;;;;;;;5085546;28;20553;-60
2022/04/07 05:42:36;;;;;;;17.00;3.25;;;;;;;;;;5072886;28;20136;-61
2022/04/07 05:45:02;;;;;;;16.98;3.47;;;;;;;;;;5098312;28;20197;-63
2022/04/07 05:47:28;;;;;;;17.42;3.72;;;;;;;;;;5094021;28;20475;-61
2022/04/07 05:49:55;;;;;;;21.25;4.00;;;;;;;;;;5106725;28;20040;-62
2022/04/07 05:52:21;;;;;;;21.80;4.45;;;;;;;;;;5106996;28;20056;-62
2022/04/07 05:54:47;;;;;;;17.80;4.07;;;;;;;;;;5109015;28;20058;-62
2022/04/07 05:57:13;;;;;;;16.88;3.63;;;;;;;;;;5098401;28;20071;-61
2022/04/07 05:59:39;;;;;;;22.23;3.83;;;;;;;;;;5088189;28;20484;-63
2022/04/07 06:02:05;;;;;;;20.02;3.97;;;;;;;;;;5085555;28;20106;-61
2022/04/07 06:04:31;;;;;;;20.52;3.75;;;;;;;;;;5100984;28;20052;-61
2022/04/07 06:06:57;;;;;;;13.90;3.22;;;;;;;;;;5084259;28;20055;-62
2022/04/07 06:09:26;;;;;;;15.57;3.30;;;;;;;;;;5079959;28;20510;-62
2022/04/07 06:11:52;;;;;;;14.55;3.10;;;;;;;;;;5088093;28;20127;-62
2022/04/07 06:14:18;;;;;;;18.85;3.53;;;;;;;;;;5086830;28;20115;-61
2022/04/07 06:16:44;;;;;;;12.82;3.65;;;;;;;;;;5090831;28;20048;-65
2022/04/07 06:19:10;;;;;;;15.13;3.88;;;;;;;;;;5089612;28;20484;-63
2022/04/07 06:21:37;;;;;;;18.17;3.70;;;;;;;;;;5089971;28;20075;-64
2022/04/07 06:24:03;;;;;;;14.98;3.22;;;;;;;;;;5090548;28;20173;-66
2022/04/07 06:26:29;;;;;;;11.48;2.72;;;;;;;;;;5091603;28;20067;-60
2022/04/07 06:28:55;;;;;;;15.20;2.97;;;;;;;;;;5090053;28;20413;-60
2022/04/07 06:31:21;;;;;;;12.68;3.03;;;;;;;;;;5089294;28;20131;-61
2022/04/07 06:33:48;;;;;;;16.02;3.50;;;;;;;;;;5074658;28;20139;-60
2022/04/07 06:36:14;;;;;;;15.40;3.20;;;;;;;;;;5082600;28;20120;-60
2022/04/07 06:38:40;;;;;;;17.48;3.17;;;;;;;;;;5094832;28;20068;-61
2022/04/07 06:41:06;;;;;;;14.30;3.03;;;;;;;;;;5091780;28;20068;-60
2022/04/07 06:43:32;;;;;;;17.95;3.20;;;;;;;;;;5077115;28;20149;-60
2022/04/07 06:45:58;;;;;;;9.63;2.65;;;;;;;;;;5080027;28;20043;-60
2022/04/07 06:48:25;;;;;;;11.23;2.30;;;;;;;;;;5081621;28;20074;-61
2022/04/07 06:50:51;;;;;;;13.40;2.78;;;;;;;;;;5083564;28;20575;-61
2022/04/07 06:53:17;;;;;;;8.73;2.40;;;;;;;;;;5088370;28;20411;-60
2022/04/07 06:55:43;;;;;;;14.93;3.03;;;;;;;;;;5085179;28;20032;-60
2022/04/07 06:58:10;;;;;;;11.85;2.65;;;;;;;;;;5068795;28;20052;-63
2022/04/07 07:00:41;;;;;;;15.05;3.00;;;;;;;;;;5069098;28;20060;-61
2022/04/07 07:03:07;;;;;;;13.40;2.90;;;;;;;;;;5074855;28;20552;-61
2022/04/07 07:05:35;;;;;;;11.80;2.63;;;;;;;;;;5082142;28;20040;-61
2022/04/07 07:08:30;;;;;;;15.15;2.63;;;;;;;;;;5086632;28;20051;-61
2022/04/07 07:10:56;;;;;;;12.57;2.80;;;;;;;;;;5097286;27;20099;-60
2022/04/07 07:13:23;;;;;;;14.20;3.15;;;;;;;;;;5068653;28;20067;-59
2022/04/07 07:15:49;;;;;;;10.93;2.45;;;;;;;;;;5070744;28;20047;-60
2022/04/07 07:18:16;;;;;;;13.25;2.50;;;;;;;;;;5082263;28;20058;-61
2022/04/07 07:20:42;;;;;;;10.35;2.65;;;;;;;;;;5069811;28;20086;-60
2022/04/07 07:23:08;;;;;;;8.98;2.20;;;;;;;;;;5085876;28;20055;-60
2022/04/07 07:25:35;;;;;;;12.35;2.47;;;;;;;;;;5061750;28;20127;-60
2022/04/07 07:28:02;;;;;;;9.93;2.70;;;;;;;;;;5082512;28;20383;-60
2022/04/07 07:30:28;;;;;;;10.10;2.40;;;;;;;;;;5083101;28;20051;-60
2022/04/07 07:32:55;;;;;;;13.80;2.75;;;;;;;;;;5067791;28;20461;-60
2022/04/07 07:35:21;;;;;;;10.65;2.55;;;;;;;;;;5097248;28;20362;-60
2022/04/07 07:37:48;;;;;;;14.18;2.55;;;;;;;;;;5079604;28;20523;-60
2022/04/07 07:40:14;;;;;;;9.50;2.30;;;;;;;;;;5082543;28;20515;-60
2022/04/07 07:42:40;;;;;;;11.70;2.25;;;;;;;;;;5079140;28;20165;-61
2022/04/07 07:45:07;;;;;;;10.35;2.60;;;;;;;;;;5080585;28;20231;-60
2022/04/07 07:47:35;;;;;;;11.20;2.47;;;;;;;;;;5075330;28;20097;-60
2022/04/07 07:50:02;;;;;;;10.13;2.33;;;;;;;;;;5079283;28;20056;-60
2022/04/07 07:52:29;;;;;;;11.00;2.50;;;;;;;;;;5081526;28;20052;-60
2022/04/07 07:54:55;;;;;;;;;;;;;;;;;;5120826;27;20074;-60
2022/04/07 07:57:21;;;;;;;12.43;2.72;;;;;;;;;;5074437;28;19928;-61
2022/04/07 07:59:47;;;;;;;11.85;2.83;;;;;;;;;;5082665;28;20044;-61
2022/04/07 08:02:13;;;;;;;12.60;2.72;;;;;;;;;;5078008;28;20127;-60
2022/04/07 08:04:39;;;;;;;15.35;3.95;;;;;;;;;;5081900;28;20040;-62
2022/04/07 08:07:06;;;;;;;12.45;2.92;;;;;;;;;;5081473;28;20139;-61
2022/04/07 08:09:38;;;;;;;14.02;2.97;;;;;;;;;;5067409;28;20253;-61
2022/04/07 08:12:04;;;;;;;11.70;2.65;;;;;;;;;;5080184;28;20065;-61
2022/04/07 08:14:30;;;;;;;;;;;;;;;;;;5080841;28;20417;-62
2022/04/07 08:16:56;;;;;;;13.75;2.78;;;;;;;;;;5078950;28;19920;-60
2022/04/07 08:19:26;;;;;;;10.60;2.55;;;;;;;;;;5080928;28;20466;-62
2022/04/07 08:21:52;;;;;;;11.07;2.80;;;;;;;;;;5079373;28;20156;-63
2022/04/07 08:24:22;;;;;;;11.63;2.65;;;;;;;;;;5085223;28;20075;-65
2022/04/07 08:26:49;;;;;;;11.25;2.25;;;;;;;;;;5074152;28;20366;-61
2022/04/07 08:29:15;;;;;;;14.15;2.78;;;;;;;;;;5079759;28;20044;-62
2022/04/07 08:31:41;;;;;;;13.23;3.05;;;;;;;;;;5078434;28;20241;-60
2022/04/07 08:34:07;;;;;;;;;;;;;;;;;;5084602;28;20044;-64
2022/04/07 08:36:33;;;;;;;15.73;2.85;;;;;;;;;;5074962;28;19931;-65
2022/04/07 08:38:59;;;;;;;13.20;2.53;;;;;;;;;;5074431;28;20063;-63
2022/04/07 08:41:31;;;;;;;10.65;2.50;;;;;;;;;;5070496;28;20453;-65
2022/04/07 08:43:58;;;;;;;16.45;2.88;;;;;;;;;;5072160;28;20373;-64
2022/04/07 08:46:27;;;;;;;12.75;2.70;;;;;;;;;;5068086;28;20063;-64
2022/04/07 08:49:01;;;;;;;10.82;2.53;;;;;;;;;;5082200;28;20062;-61
2022/04/07 08:51:31;;;;;;;11.77;2.30;;;;;;;;;;5085611;28;20048;-62
2022/04/07 08:54:01;;;;;;;12.43;2.80;;;;;;;;;;5087114;28;20055;-62
2022/04/07 08:56:27;;;;;;;15.52;2.65;;;;;;;;;;5086150;28;20032;-64
2022/04/07 08:58:56;;;;;;;11.52;2.55;;;;;;;;;;5091342;28;20111;-66
2022/04/07 09:01:25;;;;;;;10.35;2.75;;;;;;;;;;5091822;28;20059;-61
2022/04/07 09:03:51;;;;;;;11.45;2.67;;;;;;;;;;5087001;28;20066;-61
2022/04/07 09:06:25;;;;;;;11.35;2.75;;;;;;;;;;5074968;28;20177;-63
2022/04/07 09:08:51;;;;;;;14.93;2.60;;;;;;;;;;5084475;28;20089;-63
2022/04/07 09:11:19;;;;;;;15.05;3.13;;;;;;;;;;5080626;28;20052;-62
2022/04/07 09:13:45;;;;;;;15.88;2.55;;;;;;;;;;5077547;28;20836;-61
2022/04/07 09:16:12;;;;;;;;;;;;;;;;;;5084071;28;20044;-60
2022/04/07 09:18:39;;;;;;;16.45;3.55;;;;;;;;;;5084711;28;19920;-61
2022/04/07 09:21:06;;;;;;;14.60;2.88;;;;;;;;;;5084244;28;20131;-64
2022/04/07 09:23:39;;;;;;;17.33;2.95;;;;;;;;;;5081052;28;20036;-62
2022/04/07 09:26:05;;;;;;;17.20;3.22;;;;;;;;;;5081699;28;20047;-62
2022/04/07 09:28:32;;;;;;;12.68;2.90;;;;;;;;;;5083585;28;20420;-62
2022/04/07 09:31:11;;;;;;;14.25;3.13;;;;;;;;;;5080222;28;20047;-62
2022/04/07 09:33:40;;;;;;;14.73;3.42;;;;;;;;;;5083147;28;20045;-63
2022/04/07 09:36:07;;;;;;;15.50;2.92;;;;;;;;;;5082456;28;20051;-62
2022/04/07 09:38:35;;;;;;;15.02;3.28;;;;;;;;;;5078339;28;20041;-62
2022/04/07 09:41:14;;;;;;;15.00;3.20;;;;;;;;;;5079859;28;20048;-63
2022/04/07 09:43:43;;;;;;;14.98;2.90;;;;;;;;;;5080864;28;20433;-63
2022/04/07 09:46:11;;;;;;;20.73;3.78;;;;;;;;;;5083062;28;20103;-64
2022/04/07 09:48:37;;;;;;;18.38;3.25;;;;;;;;;;5086063;28;20044;-65
2022/04/07 09:51:09;;;;;;;15.80;3.28;;;;;;;;;;5082385;28;20044;-64
2022/04/07 09:53:39;;;;;;;15.85;3.70;;;;;;;;;;5083750;28;20067;-66
2022/04/07 09:56:06;;;;;;;16.50;3.05;;;;;;;;;;5118571;27;20049;-63
2022/04/07 09:58:33;;;;;;;17.60;3.38;;;;;;;;;;5114296;27;20468;-64
2022/04/07 10:01:02;;;;;;;17.15;3.85;;;;;;;;;;5084506;28;20040;-64
2022/04/07 10:03:28;;;;;;;14.65;3.20;;;;;;;;;;5081540;28;20211;-62
2022/04/07 10:05:55;;;;;;;17.95;3.38;;;;;;;;;;5087957;28;20334;-61
2022/04/07 10:08:21;;;;;;;15.75;3.05;;;;;;;;;;5088469;28;20066;-61
2022/04/07 10:10:48;;;;;;;18.88;3.20;;;;;;;;;;5069894;28;20674;-61
2022/04/07 10:13:15;;;;;;;16.65;3.65;;;;;;;;;;5080739;28;20071;-60
2022/04/07 10:15:42;;;;;;;20.80;4.63;;;;;;;;;;5074365;28;20452;-60
2022/04/07 10:18:10;;;;;;;19.40;4.05;;;;;;;;;;5085462;28;20043;-61
2022/04/07 10:20:39;;;;;;;21.83;3.58;;;;;;;;;;5075858;28;20156;-63
2022/04/07 10:23:26;;;;;;;20.50;3.75;;;;;;;;;;5079038;28;20071;-62
2022/04/07 10:25:55;;;;;;;20.98;3.60;;;;;;;;;;5074979;28;20059;-64
2022/04/07 10:28:24;;;;;;;12.80;2.75;;;;;;;;;;5075203;28;20089;-61
2022/04/07 10:30:51;;;;;;;18.63;3.42;;;;;;;;;;5069401;28;20040;-60
2022/04/07 10:33:36;;;;;;;15.55;3.13;;;;;;;;;;5074480;28;20049;-59
2022/04/07 10:36:18;;;;;;;17.35;3.72;;;;;;;;;;5071557;28;20146;-60
2022/04/07 10:38:48;;;;;;;18.77;3.80;;;;;;;;;;5071197;28;20161;-61
2022/04/07 10:41:32;;;;;;;20.17;4.15;;;;;;;;;;5071769;28;20052;-60
2022/04/07 10:44:11;;;;;;;17.13;4.07;;;;;;;;;;5071928;28;20040;-60
2022/04/07 10:46:37;;;;;;;23.02;4.40;;;;;;;;;;5070520;28;20041;-60
2022/04/07 10:49:12;;;;;;;20.67;4.10;;;;;;;;;;5079692;28;20144;-59
2022/04/07 10:51:46;;;;;;;22.75;5.05;;;;;;;;;;5090054;28;20054;-62
2022/04/07 10:54:14;;;;;;;20.40;3.75;;;;;;;;;;5090327;28;20048;-61
2022/04/07 10:56:50;;;;;;;22.50;4.63;;;;;;;;;;5079905;28;20052;-61
2022/04/07 10:59:27;;;;;;;19.52;3.92;;;;;;;;;;5085119;28;20048;-62
2022/04/07 11:01:56;;;;;;;21.90;4.32;;;;;;;;;;5084051;28;20643;-60
2022/04/07 11:04:28;;;;;;;24.80;3.85;;;;;;;;;;5087496;28;20077;-60
2022/04/07 11:07:16;;;;;;;21.85;4.93;;;;;;;;;;5080551;28;20040;-61
2022/04/07 11:09:42;;;;;;;;;;;;;;;;;;5082350;28;20040;-62
2022/04/07 11:12:11;;;;;;;21.85;4.40;;;;;;;;;;5101373;27;20029;-61
2022/04/07 11:14:37;;;;;;;20.58;4.80;;;;;;;;;;5068273;28;20052;-64
2022/04/07 11:17:04;;;;;;;;;;;;;;;;;;5071242;28;20066;-63
2022/04/07 11:19:50;;;;;;;22.55;3.88;;;;;;;;;;5088694;28;19920;-62
2022/04/07 11:22:19;;;;;;;21.17;4.33;;;;;;;;;;5070868;28;20229;-62
2022/04/07 11:24:47;;;;;;;16.60;3.80;;;;;;;;;;5086252;28;20070;-63
2022/04/07 11:27:32;;;;;;;18.92;4.00;;;;;;;;;;5086715;28;20055;-62
2022/04/07 11:30:08;;;;;;;21.80;4.78;;;;;;;;;;5086952;28;20548;-63
2022/04/07 11:32:36;;;;;;;20.58;4.20;;;;;;;;;;5072930;28;20143;-62
2022/04/07 11:35:13;;;;;;;24.88;4.57;;;;;;;;;;5085248;28;20092;-62
2022/04/07 11:37:40;;;;;;;24.45;4.32;;;;;;;;;;5088269;28;20047;-65
2022/04/07 11:40:06;;;;;;;20.38;4.13;;;;;;;;;;5088159;28;20496;-61
2022/04/07 11:42:32;;;;;;;22.83;4.88;;;;;;;;;;5074797;28;20040;-63
2022/04/07 11:44:59;;;;;;;20.67;5.65;;;;;;;;;;5067660;28;20048;-62
2022/04/07 11:47:38;;;;;;;20.20;4.82;;;;;;;;;;5068086;28;20152;-63
2022/04/07 11:50:08;;;;;;;20.50;3.63;;;;;;;;;;5087029;28;20076;-61
2022/04/07 11:52:36;;;;;;;18.60;4.13;;;;;;;;;;5084358;28;20067;-62
2022/04/07 11:55:06;;;;;;;15.25;3.13;;;;;;;;;;5082123;28;20091;-61
2022/04/07 11:57:35;;;;;;;17.60;4.13;;;;;;;;;;5079823;28;20044;-61
2022/04/07 12:00:04;;;;;;;15.50;3.78;;;;;;;;;;5074838;28;20304;-61
2022/04/07 12:02:39;;;;;;;22.95;4.22;;;;;;;;;;5077449;28;20040;-62
2022/04/07 12:05:06;;;;;;;16.77;3.45;;;;;;;;;;5068507;28;20036;-62
2022/04/07 12:07:32;;;;;;;;;;;;;;;;;;5079004;28;20225;-62
2022/04/07 12:10:05;;;;;;;20.80;4.22;;;;;;;;;;5082222;28;20340;-61
2022/04/07 12:12:33;;;;;;;13.30;3.75;;;;;;;;;;5087304;28;20123;-63
2022/04/07 12:15:00;;;;;;;16.00;3.53;;;;;;;;;;5084147;28;20036;-62
2022/04/07 12:17:27;;;;;;;18.83;4.40;;;;;;;;;;5080038;28;20235;-61
2022/04/07 12:19:53;;;;;;;20.25;4.43;;;;;;;;;;5078763;28;20136;-60
2022/04/07 12:22:28;;;;;;;18.55;3.55;;;;;;;;;;5072348;28;20060;-61
2022/04/07 12:25:00;;;;;;;17.60;3.85;;;;;;;;;;5085293;28;20047;-62
2022/04/07 12:27:34;;;;;;;16.33;4.05;;;;;;;;;;5085728;28;20109;-63
2022/04/07 12:30:00;;;;;;;14.93;3.47;;;;;;;;;;5079630;28;20514;-60
2022/04/07 12:32:43;;;;;;;14.63;3.10;;;;;;;;;;5077250;28;20051;-60
2022/04/07 12:35:09;;;;;;;15.77;2.83;;;;;;;;;;5070812;28;20060;-60
2022/04/07 12:37:40;;;;;;;10.50;2.72;;;;;;;;;;5083654;28;20119;-60
2022/04/07 12:40:15;;;;;;;12.32;3.00;;;;;;;;;;5045101;28;20045;-61
2022/04/07 12:43:00;;;;;;;17.38;3.95;;;;;;;;;;5047316;28;20057;-60
2022/04/07 12:45:28;;;;;;;27.70;4.25;;;;;;;;;;5044456;28;20076;-60
2022/04/07 12:48:19;;;;;;;18.83;4.07;;;;;;;;;;5040134;28;20091;-61
2022/04/07 12:50:54;;;;;;;25.55;4.43;;;;;;;;;;5042649;28;20053;-61
2022/04/07 12:53:30;;;;;;;21.17;4.80;;;;;;;;;;5025859;28;20076;-60
2022/04/07 12:56:01;;;;;;;20.67;4.53;;;;;;;;;;5027734;28;20124;-61
2022/04/07 12:58:28;;;;;;;27.30;4.60;;;;;;;;;;5045677;28;20095;-61
2022/04/07 13:01:01;;;;;;;18.15;5.43;;;;;;;;;;5044697;28;20089;-61
2022/04/07 13:03:28;;;;;;;19.38;4.45;;;;;;;;;;5038436;28;20072;-61
2022/04/07 13:05:55;;;;;;;18.42;3.95;;;;;;;;;;5057048;28;20040;-60
2022/04/07 13:08:21;;;;;;;17.13;3.60;;;;;;;;;;5046095;28;20045;-60
2022/04/07 13:10:47;;;;;;;15.20;3.58;;;;;;;;;;5046616;28;20349;-61
2022/04/07 13:13:15;;;;;;;24.38;4.25;;;;;;;;;;5033399;28;20265;-61
2022/04/07 13:15:41;;;;;;;18.63;4.20;;;;;;;;;;5045658;28;20116;-62
2022/04/07 13:18:07;;;;;;;25.40;4.22;;;;;;;;;;5043714;28;20089;-63
2022/04/07 13:20:33;;;;;;;19.27;4.00;;;;;;;;;;5042445;28;20124;-62
2022/04/07 13:22:59;;;;;;;17.55;3.90;;;;;;;;;;5044398;28;20076;-61
2022/04/07 13:25:25;;;;;;;23.27;4.70;;;;;;;;;;5033065;28;20188;-61
2022/04/07 13:27:51;;;;;;;18.95;4.05;;;;;;;;;;5036245;28;20081;-62
2022/04/07 13:30:18;;;;;;;15.15;3.50;;;;;;;;;;5047318;28;20191;-62
2022/04/07 13:32:44;;;;;;;12.93;3.42;;;;;;;;;;5044360;28;20114;-63
2022/04/07 13:35:10;;;;;;;17.38;3.95;;;;;;;;;;5047487;28;20037;-63
2022/04/07 13:37:36;;;;;;;14.27;2.97;;;;;;;;;;5047436;28;20067;-62
2022/04/07 13:40:02;;;;;;;13.18;3.10;;;;;;;;;;5039216;28;20052;-61
2022/04/07 13:42:31;;;;;;;9.48;2.85;;;;;;;;;;5038703;28;20125;-62
2022/04/07 13:44:57;;;;;;;12.63;3.20;;;;;;;;;;5046137;28;20049;-63
2022/04/07 13:47:23;;;;;;;14.40;3.30;;;;;;;;;;5044231;28;20465;-62
2022/04/07 13:49:50;;;;;;;13.82;3.50;;;;;;;;;;5043385;28;20051;-62
2022/04/07 13:52:19;;;;;;;16.25;3.58;;;;;;;;;;5041271;28;20051;-62
2022/04/07 13:54:45;;;;;;;13.40;3.83;;;;;;;;;;5044613;28;20461;-62
2022/04/07 13:57:11;;;;;;;12.70;2.72;;;;;;;;;;5043765;28;20508;-62
2022/04/07 13:59:37;;;;;;;14.52;2.72;;;;;;;;;;5046551;28;20092;-62
2022/04/07 14:02:04;;;;;;;10.18;2.85;;;;;;;;;;5039159;28;20080;-62
2022/04/07 14:04:30;;;;;;;10.88;2.60;;;;;;;;;;5042620;28;20064;-63
2022/04/07 14:07:00;;;;;;;15.40;3.08;;;;;;;;;;5045681;28;20076;-62
2022/04/07 14:09:26;;;;;;;13.55;3.03;;;;;;;;;;5045174;28;20159;-62
2022/04/07 14:11:52;;;;;;;15.50;3.10;;;;;;;;;;5046528;28;20040;-62
2022/04/07 14:14:18;;;;;;;11.77;2.88;;;;;;;;;;5045673;28;20472;-63
2022/04/07 14:16:45;;;;;;;;;;;;;;;;;;5045604;28;20203;-61
2022/04/07 14:19:12;;;;;;;9.95;3.38;;;;;;;;;;5045170;28;20322;-62
2022/04/07 14:21:39;;;;;;;12.32;3.10;;;;;;;;;;5047388;28;20063;-62
2022/04/07 14:24:05;;;;;;;;;;;;;;;;;;5046943;28;20051;-62
2022/04/07 14:26:37;;;;;;;14.10;3.40;;;;;;;;;;5047333;28;19941;-60
2022/04/07 14:29:03;;;;;;;11.75;3.20;;;;;;;;;;5046022;28;20045;-61
2022/04/07 14:31:29;;;;;;;13.02;3.00;;;;;;;;;;5046711;28;20458;-60
2022/04/07 14:33:55;;;;;;;16.80;4.38;;;;;;;;;;5048737;28;20048;-59
2022/04/07 14:36:23;;;;;;;20.15;3.67;;;;;;;;;;5048381;28;20448;-60
2022/04/07 14:38:49;;;;;;;15.73;3.40;;;;;;;;;;5050347;28;20052;-61